Time;durP1;ratioP1;P1;durP2;ratioP2;P2;SDS_P1;SDS_P2;PMS_P1;PMS_P2;Temp;Humidity;BMP_temperature;BMP_pressure;BME280_temperature;BME280_humidity;BME280_pressure;Samples;Min_cycle;Max_cycle;Signal;HPM_P1;HPM_P2
2022/03/16 00:05:24;;;;;;;45.05;25.40;;;4.00;99.90;;;;;;5477319;22;20037;-61
2022/03/16 00:07:50;;;;;;;70.15;28.73;;;4.10;99.90;;;;;;5047337;28;20037;-61
2022/03/16 00:10:15;;;;;;;42.97;26.13;;;4.10;99.90;;;;;;5040498;28;20182;-61
2022/03/16 00:12:42;;;;;;;49.22;26.27;;;4.10;99.90;;;;;;5038460;28;20044;-61
2022/03/16 00:15:08;;;;;;;54.08;29.88;;;4.10;99.90;;;;;;5028809;28;20415;-61
2022/03/16 00:17:34;;;;;;;60.28;32.10;;;4.20;99.90;;;;;;5051007;22;20037;-61
2022/03/16 00:20:00;;;;;;;47.65;26.75;;;4.30;99.90;;;;;;5005827;28;20499;-60
2022/03/16 00:22:25;;;;;;;72.25;27.70;;;4.30;99.90;;;;;;5007651;28;20137;-61
2022/03/16 00:24:51;;;;;;;70.10;27.88;;;4.40;99.90;;;;;;5007955;28;20488;-61
2022/03/16 00:27:16;;;;;;;191.85;28.70;;;4.40;99.90;;;;;;5007783;28;20057;-61
2022/03/16 00:29:42;;;;;;;194.40;27.08;;;4.30;99.90;;;;;;5009678;28;20050;-61
2022/03/16 00:32:07;;;;;;;204.93;29.10;;;4.20;99.90;;;;;;5007731;28;20034;-61
2022/03/16 00:34:33;;;;;;;169.25;30.77;;;4.20;99.90;;;;;;5004143;28;20484;-61
2022/03/16 00:36:59;;;;;;;58.53;31.15;;;4.20;99.90;;;;;;4999295;28;20033;-61
2022/03/16 00:39:25;;;;;;;62.03;30.60;;;4.20;99.90;;;;;;5007721;28;20042;-61
2022/03/16 00:41:50;;;;;;;59.50;31.55;;;4.40;99.90;;;;;;5006659;28;20046;-61
2022/03/16 00:44:16;;;;;;;67.28;33.83;;;4.40;99.90;;;;;;5012653;28;20037;-61
2022/03/16 00:46:42;;;;;;;60.85;31.02;;;4.50;99.90;;;;;;5004905;28;20038;-61
2022/03/16 00:49:07;;;;;;;52.42;29.08;;;4.60;99.90;;;;;;5007390;28;20064;-61
2022/03/16 00:51:33;;;;;;;57.00;29.42;;;4.60;99.90;;;;;;5000748;28;20089;-61
2022/03/16 00:53:59;;;;;;;121.03;29.25;;;4.60;99.90;;;;;;5007806;28;20064;-61
2022/03/16 00:56:25;;;;;;;249.18;28.30;;;4.50;99.90;;;;;;5011295;28;20069;-60
2022/03/16 00:58:50;;;;;;;410.92;32.70;;;4.20;99.90;;;;;;5011027;28;20046;-61
2022/03/16 01:01:16;;;;;;;203.02;26.27;;;4.00;99.90;;;;;;5016310;28;20076;-61
2022/03/16 01:03:41;;;;;;;122.80;25.80;;;3.90;99.90;;;;;;5013007;28;20045;-61
2022/03/16 01:06:20;;;;;;;103.15;23.90;;;3.80;99.90;;;;;;5011125;28;20072;-61
2022/03/16 01:08:45;;;;;;;43.15;24.35;;;3.70;99.90;;;;;;5014007;28;20130;-61
2022/03/16 01:11:12;;;;;;;37.50;22.48;;;3.50;99.90;;;;;;5006287;28;20411;-61
2022/03/16 01:13:38;;;;;;;257.60;24.73;;;3.40;99.90;;;;;;5010850;28;20038;-61
2022/03/16 01:16:04;;;;;;;28.98;17.48;;;3.30;99.90;;;;;;5011027;28;20038;-61
2022/03/16 01:18:30;;;;;;;207.60;21.58;;;3.20;99.90;;;;;;5006341;28;20049;-61
2022/03/16 01:20:56;;;;;;;111.47;22.95;;;3.20;99.90;;;;;;5009995;28;20041;-61
2022/03/16 01:23:21;;;;;;;43.95;16.95;;;3.10;99.90;;;;;;5010699;28;20446;-60
2022/03/16 01:25:47;;;;;;;533.72;33.38;;;2.90;99.90;;;;;;5005780;28;20165;-61
2022/03/16 01:28:12;;;;;;;163.73;19.08;;;3.00;99.90;;;;;;5003880;28;20315;-61
2022/03/16 01:30:38;;;;;;;165.43;27.73;;;3.00;99.90;;;;;;4992879;28;20117;-60
2022/03/16 01:33:04;;;;;;;69.68;28.30;;;2.90;99.90;;;;;;5005326;28;20045;-61
2022/03/16 01:35:30;;;;;;;93.28;38.80;;;3.00;99.90;;;;;;4992906;28;20041;-61
2022/03/16 01:37:55;;;;;;;77.15;35.45;;;3.30;99.90;;;;;;5010436;28;20050;-61
2022/03/16 01:40:21;;;;;;;176.95;28.92;;;3.40;99.90;;;;;;5009958;28;20042;-61
2022/03/16 01:42:47;;;;;;;168.38;28.92;;;3.20;99.90;;;;;;5001749;28;20031;-61
2022/03/16 01:45:12;;;;;;;70.60;34.17;;;2.90;99.90;;;;;;5009315;28;20496;-61
2022/03/16 01:47:38;;;;;;;75.65;36.25;;;3.10;99.90;;;;;;5010184;28;20141;-61
2022/03/16 01:50:04;;;;;;;76.90;35.72;;;3.30;99.90;;;;;;5014042;28;20111;-61
2022/03/16 01:52:30;;;;;;;90.65;39.28;;;3.50;99.90;;;;;;5008346;28;20076;-61
2022/03/16 01:54:56;;;;;;;198.88;30.77;;;3.70;99.90;;;;;;5009947;28;20427;-61
2022/03/16 01:57:23;;;;;;;130.00;29.20;;;3.40;99.90;;;;;;5007720;28;20050;-60
2022/03/16 01:59:49;;;;;;;547.13;39.17;;;3.20;99.90;;;;;;4998367;28;20485;-61
2022/03/16 02:02:15;;;;;;;399.95;38.38;;;3.10;99.90;;;;;;5009208;28;20095;-61
2022/03/16 02:04:43;;;;;;;58.72;29.98;;;3.10;99.90;;;;;;5008529;28;20041;-61
2022/03/16 02:07:09;;;;;;;131.95;32.00;;;3.20;99.90;;;;;;5007586;28;20048;-61
2022/03/16 02:09:35;;;;;;;327.30;37.10;;;3.20;99.90;;;;;;5007684;28;20030;-61
2022/03/16 02:12:01;;;;;;;119.93;34.10;;;3.20;99.90;;;;;;5001769;28;20403;-60
2022/03/16 02:14:27;;;;;;;160.13;35.60;;;3.20;99.90;;;;;;5012339;28;20132;-61
2022/03/16 02:16:56;;;;;;;66.63;34.42;;;3.20;99.90;;;;;;4978258;28;20050;-61
2022/03/16 02:19:22;;;;;;;152.50;31.52;;;3.20;99.90;;;;;;5009515;28;20038;-60
2022/03/16 02:21:59;;;;;;;127.57;31.08;;;3.20;99.90;;;;;;5010416;28;20048;-61
2022/03/16 02:24:26;;;;;;;304.20;37.92;;;3.20;99.90;;;;;;5006232;28;20269;-61
2022/03/16 02:26:52;;;;;;;58.20;30.67;;;2.90;99.90;;;;;;5008493;28;20042;-61
2022/03/16 02:29:18;;;;;;;53.92;29.73;;;2.90;99.90;;;;;;5009383;28;20046;-61
2022/03/16 02:31:43;;;;;;;215.40;32.80;;;3.00;99.90;;;;;;5002689;28;20117;-61
2022/03/16 02:34:09;;;;;;;95.38;28.90;;;2.90;99.90;;;;;;5007506;28;20416;-61
2022/03/16 02:36:35;;;;;;;64.30;28.65;;;2.70;99.90;;;;;;5009400;28;20046;-61
2022/03/16 02:39:00;;;;;;;92.85;31.20;;;2.70;99.90;;;;;;5009559;28;20516;-61
2022/03/16 02:41:26;;;;;;;164.32;28.83;;;2.90;99.90;;;;;;5015173;28;20025;-61
2022/03/16 02:43:51;;;;;;;464.98;39.97;;;2.70;99.90;;;;;;5014924;28;20573;-61
2022/03/16 02:46:17;;;;;;;522.55;46.22;;;2.60;99.90;;;;;;5009488;28;20066;-61
2022/03/16 02:48:43;;;;;;;540.45;43.40;;;2.40;99.90;;;;;;5002679;28;20567;-61
2022/03/16 02:51:08;;;;;;;334.85;36.88;;;2.20;99.90;;;;;;5005250;28;20034;-60
2022/03/16 02:53:34;;;;;;;427.50;35.97;;;2.00;99.90;;;;;;5008970;28;20404;-61
2022/03/16 02:55:59;;;;;;;157.35;29.88;;;1.90;99.90;;;;;;5004692;28;20135;-61
2022/03/16 02:58:25;;;;;;;249.20;28.48;;;1.90;99.90;;;;;;5004470;28;20045;-61
2022/03/16 03:00:50;;;;;;;294.95;28.08;;;1.90;99.90;;;;;;5009461;28;20037;-60
2022/03/16 03:03:17;;;;;;;711.50;42.83;;;2.10;99.90;;;;;;5009042;28;20080;-61
2022/03/16 03:05:42;;;;;;;599.78;40.30;;;2.10;99.90;;;;;;4994686;28;20280;-60
2022/03/16 03:08:08;;;;;;;657.60;47.78;;;2.30;99.90;;;;;;5015937;28;20037;-61
2022/03/16 03:10:34;;;;;;;514.42;40.03;;;2.30;99.90;;;;;;5008833;28;20168;-61
2022/03/16 03:12:59;;;;;;;420.08;32.42;;;2.40;99.90;;;;;;5007254;28;20042;-61
2022/03/16 03:15:25;;;;;;;329.20;31.85;;;2.30;99.90;;;;;;5000646;28;20520;-61
2022/03/16 03:17:50;;;;;;;208.23;28.63;;;2.30;99.90;;;;;;5008325;28;20411;-61
2022/03/16 03:20:16;;;;;;;247.75;27.75;;;2.30;99.90;;;;;;5007853;28;20117;-61
2022/03/16 03:22:41;;;;;;;276.20;29.83;;;2.30;99.90;;;;;;5012196;28;20176;-61
2022/03/16 03:25:14;;;;;;;246.55;28.50;;;2.30;99.90;;;;;;5008801;28;20030;-61
2022/03/16 03:27:40;;;;;;;362.17;36.25;;;2.20;99.90;;;;;;5008577;28;20037;-61
2022/03/16 03:30:07;;;;;;;362.25;31.92;;;2.20;99.90;;;;;;5010202;28;20239;-61
2022/03/16 03:32:32;;;;;;;381.30;37.47;;;2.20;99.90;;;;;;5011480;28;20407;-61
2022/03/16 03:34:58;;;;;;;264.45;29.52;;;2.20;99.90;;;;;;5008521;28;20343;-61
2022/03/16 03:37:30;;;;;;;323.48;30.33;;;2.20;99.90;;;;;;5005054;28;20042;-61
2022/03/16 03:39:56;;;;;;;303.88;32.33;;;2.10;99.90;;;;;;5007957;28;20060;-60
2022/03/16 03:42:22;;;;;;;163.40;23.17;;;2.10;99.90;;;;;;5008601;28;20346;-60
2022/03/16 03:44:48;;;;;;;129.10;23.80;;;2.00;99.90;;;;;;5007177;28;20488;-61
2022/03/16 03:47:14;;;;;;;78.75;21.75;;;1.90;99.90;;;;;;4996554;28;20124;-61
2022/03/16 03:49:40;;;;;;;78.70;22.48;;;1.90;99.90;;;;;;5005391;28;20034;-61
2022/03/16 03:52:07;;;;;;;121.78;26.83;;;1.80;99.90;;;;;;5008756;28;20105;-61
2022/03/16 03:54:33;;;;;;;56.78;22.05;;;1.90;99.90;;;;;;5000250;28;20031;-61
2022/03/16 03:56:59;;;;;;;76.03;28.45;;;1.90;99.90;;;;;;4992874;28;20045;-61
2022/03/16 03:59:24;;;;;;;68.75;25.45;;;2.00;99.90;;;;;;5008281;28;20045;-61
2022/03/16 04:01:50;;;;;;;279.98;29.90;;;2.10;99.90;;;;;;5008511;28;20395;-60
2022/03/16 04:04:16;;;;;;;52.45;26.05;;;2.20;99.90;;;;;;5003742;28;20444;-61
2022/03/16 04:06:42;;;;;;;114.20;24.98;;;2.20;99.90;;;;;;5007023;28;20045;-60
2022/03/16 04:09:08;;;;;;;95.40;24.40;;;2.10;99.90;;;;;;5007851;28;20038;-61
2022/03/16 04:11:34;;;;;;;74.80;22.90;;;2.00;99.90;;;;;;5012352;28;20109;-61
2022/03/16 04:13:59;;;;;;;104.85;25.63;;;1.80;99.90;;;;;;5009296;28;20061;-60
2022/03/16 04:16:25;;;;;;;106.72;23.17;;;1.80;99.90;;;;;;5007921;28;20139;-61
2022/03/16 04:18:51;;;;;;;239.32;25.48;;;1.70;99.90;;;;;;5007659;28;20077;-60
2022/03/16 04:21:16;;;;;;;111.07;22.17;;;1.70;99.90;;;;;;5008495;28;20034;-60
2022/03/16 04:23:42;;;;;;;97.40;23.05;;;1.70;99.90;;;;;;5007199;28;20564;-60
2022/03/16 04:26:08;;;;;;;298.27;30.27;;;1.70;99.90;;;;;;4999022;28;20042;-61
2022/03/16 04:28:34;;;;;;;236.50;29.48;;;1.70;99.90;;;;;;4998202;28;20042;-61
2022/03/16 04:31:00;;;;;;;272.05;28.33;;;1.70;99.90;;;;;;5007686;28;20044;-61
2022/03/16 04:33:26;;;;;;;205.63;28.95;;;1.70;99.90;;;;;;5011954;28;20057;-60
2022/03/16 04:35:52;;;;;;;87.60;24.17;;;1.70;99.90;;;;;;5009821;28;20038;-61
2022/03/16 04:38:19;;;;;;;202.00;25.48;;;1.70;99.90;;;;;;5021340;28;20361;-60
2022/03/16 04:40:45;;;;;;;73.18;23.95;;;1.70;99.90;;;;;;5013863;28;20077;-61
2022/03/16 04:43:11;;;;;;;110.80;25.30;;;1.80;99.90;;;;;;5011336;28;20069;-61
2022/03/16 04:45:38;;;;;;;242.30;27.33;;;1.70;99.90;;;;;;5015211;28;20067;-60
2022/03/16 04:48:07;;;;;;;89.82;26.13;;;1.60;99.90;;;;;;5004707;28;20057;-60
2022/03/16 04:50:34;;;;;;;56.35;23.13;;;1.50;99.90;;;;;;5011499;28;20733;-60
2022/03/16 04:53:00;;;;;;;40.63;22.98;;;1.50;99.90;;;;;;5011236;28;20038;-61
2022/03/16 04:55:25;;;;;;;108.72;26.40;;;1.60;99.90;;;;;;5013132;28;20542;-60
2022/03/16 04:57:51;;;;;;;46.25;25.08;;;1.60;99.90;;;;;;5011234;28;20048;-60
2022/03/16 05:00:16;;;;;;;129.55;24.08;;;1.60;99.90;;;;;;5011278;28;20038;-62
2022/03/16 05:02:42;;;;;;;167.15;25.85;;;1.50;99.90;;;;;;5007055;28;20084;-62
2022/03/16 05:05:10;;;;;;;310.20;27.83;;;1.60;99.90;;;;;;5010146;28;20162;-62
2022/03/16 05:07:36;;;;;;;60.97;21.60;;;1.60;99.90;;;;;;5010002;28;20042;-61
2022/03/16 05:10:03;;;;;;;158.10;26.92;;;1.60;99.90;;;;;;5011715;28;20511;-61
2022/03/16 05:12:37;;;;;;;86.03;24.20;;;1.70;99.90;;;;;;5011217;28;20053;-61
2022/03/16 05:15:04;;;;;;;124.88;24.10;;;1.70;99.90;;;;;;4991697;28;20060;-61
2022/03/16 05:17:29;;;;;;;195.85;25.10;;;1.60;99.90;;;;;;5006843;28;20046;-60
2022/03/16 05:19:55;;;;;;;176.63;25.63;;;1.40;99.90;;;;;;5015228;28;20068;-61
2022/03/16 05:22:20;;;;;;;406.20;34.55;;;1.40;99.90;;;;;;5011032;28;20528;-61
2022/03/16 05:24:46;;;;;;;276.23;26.63;;;1.30;99.90;;;;;;5010704;28;20527;-61
2022/03/16 05:27:11;;;;;;;284.40;33.20;;;1.20;99.90;;;;;;5014574;28;20041;-61
2022/03/16 05:29:37;;;;;;;173.52;29.02;;;1.30;99.90;;;;;;5017779;28;20063;-61
2022/03/16 05:32:03;;;;;;;249.95;29.85;;;1.30;99.90;;;;;;5009638;28;20440;-61
2022/03/16 05:34:28;;;;;;;222.90;28.63;;;1.20;99.90;;;;;;5010765;28;20489;-61
2022/03/16 05:36:54;;;;;;;227.60;30.08;;;1.20;99.90;;;;;;5007894;28;20045;-60
2022/03/16 05:39:19;;;;;;;194.48;27.83;;;1.20;99.90;;;;;;5010242;28;20041;-60
2022/03/16 05:41:45;;;;;;;165.00;29.65;;;1.20;99.90;;;;;;5008954;28;20053;-59
2022/03/16 05:44:11;;;;;;;92.40;27.95;;;1.10;99.90;;;;;;5000448;28;20049;-60
2022/03/16 05:46:36;;;;;;;56.92;29.20;;;1.10;99.90;;;;;;4999295;28;20049;-60
2022/03/16 05:49:02;;;;;;;58.25;29.35;;;1.30;99.90;;;;;;5013386;28;20042;-60
2022/03/16 05:51:27;;;;;;;59.25;31.27;;;1.50;99.90;;;;;;4996844;28;20033;-61
2022/03/16 05:53:53;;;;;;;65.45;33.03;;;1.70;99.90;;;;;;4987860;28;20503;-62
2022/03/16 05:56:18;;;;;;;61.78;32.33;;;1.90;99.90;;;;;;5000332;28;20042;-61
2022/03/16 05:58:44;;;;;;;60.22;31.27;;;2.00;99.90;;;;;;5006287;28;20402;-61
2022/03/16 06:01:09;;;;;;;163.88;30.30;;;2.20;99.90;;;;;;5007903;28;20488;-60
2022/03/16 06:03:35;;;;;;;157.50;29.00;;;2.10;99.90;;;;;;5005794;28;20526;-60
2022/03/16 06:06:00;;;;;;;103.13;29.13;;;1.80;99.90;;;;;;5010779;28;20056;-60
2022/03/16 06:08:26;;;;;;;54.25;25.08;;;1.50;99.90;;;;;;5011921;28;20033;-61
2022/03/16 06:10:52;;;;;;;31.98;19.92;;;1.30;99.90;;;;;;5012549;28;20052;-61
2022/03/16 06:13:17;;;;;;;40.35;20.90;;;1.30;99.90;;;;;;5007480;28;20030;-60
2022/03/16 06:15:44;;;;;;;67.75;22.50;;;1.20;99.90;;;;;;5007345;28;20551;-61
2022/03/16 06:18:11;;;;;;;56.08;20.73;;;1.20;99.90;;;;;;5007290;28;20033;-60
2022/03/16 06:20:37;;;;;;;96.53;22.40;;;1.20;99.90;;;;;;5009226;28;20041;-60
2022/03/16 06:23:05;;;;;;;115.00;23.85;;;1.10;99.90;;;;;;5006739;28;20247;-61
2022/03/16 06:25:34;;;;;;;133.10;24.73;;;1.20;99.90;;;;;;4996108;28;20073;-60
2022/03/16 06:28:00;;;;;;;179.30;27.80;;;1.30;99.90;;;;;;4999704;28;20080;-61
2022/03/16 06:30:25;;;;;;;42.85;24.95;;;1.40;99.90;;;;;;5007203;28;20073;-61
2022/03/16 06:32:51;;;;;;;66.32;26.73;;;1.50;99.90;;;;;;4998975;28;20029;-61
2022/03/16 06:35:17;;;;;;;52.65;26.27;;;1.60;99.90;;;;;;5005098;28;20116;-61
2022/03/16 06:37:43;;;;;;;44.38;24.65;;;1.70;99.90;;;;;;5006653;28;20331;-61
2022/03/16 06:40:09;;;;;;;56.17;30.73;;;1.80;99.90;;;;;;5009428;28;20476;-61
2022/03/16 06:42:54;;;;;;;62.08;31.33;;;2.00;99.90;;;;;;4987048;28;20042;-61
2022/03/16 06:45:21;;;;;;;69.68;34.30;;;2.30;99.90;;;;;;5000944;28;20065;-61
2022/03/16 06:47:47;;;;;;;71.93;35.90;;;2.60;99.90;;;;;;5006672;28;20037;-61
2022/03/16 06:50:13;;;;;;;71.80;36.33;;;2.90;99.90;;;;;;4988814;28;23766;-61
2022/03/16 06:52:39;;;;;;;80.72;37.95;;;3.10;99.90;;;;;;4994831;28;20126;-61
2022/03/16 06:55:09;;;;;;;83.25;38.22;;;3.20;99.90;;;;;;5006099;28;20037;-61
2022/03/16 06:57:35;;;;;;;77.07;37.55;;;3.40;99.90;;;;;;5002273;28;20521;-61
2022/03/16 07:00:03;;;;;;;80.75;38.15;;;3.60;99.90;;;;;;4996798;28;20042;-61
2022/03/16 07:02:28;;;;;;;78.20;38.22;;;3.70;99.90;;;;;;5005774;28;20555;-61
2022/03/16 07:04:54;;;;;;;79.93;38.22;;;3.90;99.90;;;;;;5006581;28;20045;-61
2022/03/16 07:07:20;;;;;;;75.57;37.60;;;4.00;99.90;;;;;;4999432;28;20037;-61
2022/03/16 07:09:45;;;;;;;78.88;37.90;;;4.00;99.90;;;;;;5003506;28;20150;-61
2022/03/16 07:12:11;;;;;;;74.97;37.38;;;4.20;99.90;;;;;;5005108;28;20066;-60
2022/03/16 07:14:36;;;;;;;73.95;37.75;;;4.30;99.90;;;;;;5001477;28;20122;-60
2022/03/16 07:17:02;;;;;;;77.63;37.88;;;4.30;99.90;;;;;;4991795;28;20483;-60
2022/03/16 07:19:29;;;;;;;59.53;32.70;;;4.40;99.90;;;;;;5005633;28;20108;-60
2022/03/16 07:22:00;;;;;;;62.10;33.47;;;4.40;99.90;;;;;;5004664;28;20053;-61
2022/03/16 07:24:26;;;;;;;69.93;34.47;;;4.50;99.90;;;;;;5004640;28;20038;-60
2022/03/16 07:26:53;;;;;;;68.22;35.78;;;4.60;99.90;;;;;;5004112;28;20048;-61
2022/03/16 07:29:19;;;;;;;76.13;38.28;;;4.70;99.90;;;;;;5006085;28;20046;-61
2022/03/16 07:31:45;;;;;;;83.25;42.00;;;4.90;99.90;;;;;;4995965;28;20112;-61
2022/03/16 07:34:11;;;;;;;71.78;37.80;;;5.10;99.90;;;;;;5004166;28;20378;-61
2022/03/16 07:36:36;;;;;;;78.50;41.63;;;5.30;99.90;;;;;;5005715;28;20278;-61
2022/03/16 07:39:02;;;;;;;79.70;41.65;;;5.50;99.90;;;;;;5005899;28;20042;-61
2022/03/16 07:41:27;;;;;;;75.32;39.08;;;5.70;99.90;;;;;;5007052;28;20039;-60
2022/03/16 07:43:53;;;;;;;70.57;39.13;;;5.80;99.90;;;;;;5000236;28;20073;-61
2022/03/16 07:46:19;;;;;;;72.50;38.35;;;5.90;99.90;;;;;;5005710;28;20049;-61
2022/03/16 07:48:45;;;;;;;69.95;38.90;;;6.00;99.90;;;;;;4998751;28;20424;-60
2022/03/16 07:51:11;;;;;;;68.35;39.90;;;6.10;99.90;;;;;;5004154;28;20332;-61
2022/03/16 07:53:37;;;;;;;71.80;39.05;;;6.20;99.90;;;;;;5004431;28;20092;-61
2022/03/16 07:56:03;;;;;;;70.38;38.13;;;6.30;99.90;;;;;;5005500;28;20459;-61
2022/03/16 07:58:28;;;;;;;62.85;37.22;;;6.40;99.90;;;;;;5003091;28;20302;-61
2022/03/16 08:00:55;;;;;;;63.78;37.10;;;6.40;99.90;;;;;;5005007;28;20049;-61
2022/03/16 08:03:20;;;;;;;67.07;38.80;;;6.50;99.90;;;;;;5005002;28;20041;-61
2022/03/16 08:05:47;;;;;;;64.72;38.97;;;6.60;99.90;;;;;;5016848;28;20037;-61
2022/03/16 08:08:13;;;;;;;64.03;37.10;;;6.70;99.90;;;;;;5011362;28;20046;-60
2022/03/16 08:10:39;;;;;;;62.58;37.47;;;6.70;99.90;;;;;;5005025;28;20109;-61
2022/03/16 08:13:04;;;;;;;63.72;36.80;;;6.90;99.90;;;;;;5005946;28;21116;-61
2022/03/16 08:15:30;;;;;;;65.57;36.95;;;7.00;99.90;;;;;;5008953;28;20668;-61
2022/03/16 08:17:55;;;;;;;58.83;33.90;;;7.10;99.90;;;;;;5005640;28;20042;-60
2022/03/16 08:20:21;;;;;;;60.80;35.72;;;7.20;99.90;;;;;;5003918;28;20052;-61
2022/03/16 08:22:47;;;;;;;57.78;33.40;;;7.30;99.90;;;;;;4999831;28;20050;-60
2022/03/16 08:25:13;;;;;;;53.97;32.85;;;7.40;99.90;;;;;;4998024;28;20065;-61
2022/03/16 08:27:40;;;;;;;56.55;33.72;;;7.40;99.90;;;;;;5005101;28;20077;-60
2022/03/16 08:30:08;;;;;;;53.35;31.75;;;7.50;99.90;;;;;;5000624;28;20034;-61
2022/03/16 08:32:33;;;;;;;54.15;33.70;;;7.60;99.90;;;;;;5006486;28;20121;-61
2022/03/16 08:34:59;;;;;;;50.83;31.80;;;7.70;99.90;;;;;;5005437;28;20112;-60
2022/03/16 08:37:25;;;;;;;53.42;31.80;;;7.70;99.90;;;;;;5002320;28;20164;-60
2022/03/16 08:39:51;;;;;;;51.78;31.48;;;7.80;99.90;;;;;;4994060;28;20044;-62
2022/03/16 08:42:17;;;;;;;48.67;29.70;;;7.80;99.90;;;;;;5003677;28;20468;-61
2022/03/16 08:44:43;;;;;;;50.40;29.52;;;7.90;99.90;;;;;;5005241;28;20096;-62
2022/03/16 08:47:16;;;;;;;50.67;30.85;;;8.00;99.90;;;;;;4988010;28;20046;-62
2022/03/16 08:49:43;;;;;;;48.80;30.77;;;8.00;99.90;;;;;;4988743;28;20037;-61
2022/03/16 08:52:10;;;;;;;53.92;30.45;;;8.10;99.90;;;;;;5005455;28;20084;-61
2022/03/16 08:54:36;;;;;;;48.95;29.75;;;8.20;99.90;;;;;;5000996;28;20769;-61
2022/03/16 08:57:02;;;;;;;51.75;29.05;;;8.20;99.90;;;;;;5009913;28;20046;-60
2022/03/16 08:59:27;;;;;;;48.63;30.15;;;8.30;99.90;;;;;;5009836;28;20073;-61
2022/03/16 09:01:53;;;;;;;55.97;31.23;;;8.30;99.90;;;;;;5005296;28;20044;-62
2022/03/16 09:04:18;;;;;;;52.72;31.02;;;8.30;99.90;;;;;;5005358;28;20532;-62
2022/03/16 09:06:44;;;;;;;55.60;30.98;;;8.40;99.90;;;;;;4999944;28;20508;-60
2022/03/16 09:09:10;;;;;;;50.05;28.98;;;8.50;99.90;;;;;;5004553;28;20037;-62
2022/03/16 09:11:35;;;;;;;48.15;28.67;;;8.50;99.90;;;;;;5006642;28;20034;-61
2022/03/16 09:14:02;;;;;;;49.22;29.77;;;8.60;99.90;;;;;;4999018;28;20034;-62
2022/03/16 09:16:28;;;;;;;47.50;28.58;;;8.70;99.90;;;;;;5008464;28;20417;-62
2022/03/16 09:18:54;;;;;;;43.10;26.45;;;8.80;99.90;;;;;;5008710;28;20700;-61
2022/03/16 09:21:19;;;;;;;45.25;26.77;;;9.00;99.90;;;;;;4996128;28;20574;-62
2022/03/16 09:23:45;;;;;;;42.40;25.75;;;9.10;99.90;;;;;;5007384;28;20037;-61
2022/03/16 09:26:11;;;;;;;42.92;24.73;;;9.20;99.90;;;;;;5008014;28;20046;-61
2022/03/16 09:28:36;;;;;;;38.22;24.40;;;9.30;99.90;;;;;;5002605;28;20035;-61
2022/03/16 09:31:02;;;;;;;43.20;25.80;;;9.40;99.90;;;;;;5006173;28;20325;-61
2022/03/16 09:33:30;;;;;;;43.30;25.10;;;9.40;99.90;;;;;;5008014;28;20034;-61
2022/03/16 09:35:55;;;;;;;39.25;24.58;;;9.50;99.90;;;;;;4985827;28;20433;-61
2022/03/16 09:38:21;;;;;;;41.45;22.67;;;9.50;99.90;;;;;;4997182;28;20108;-61
2022/03/16 09:40:53;;;;;;;39.35;23.17;;;9.70;99.90;;;;;;5007845;28;20045;-61
2022/03/16 09:43:19;;;;;;;;;;;9.80;99.90;;;;;;5008318;28;20518;-61
2022/03/16 09:45:54;;;;;;;38.88;22.58;;;9.90;99.90;;;;;;5002413;28;19952;-61
2022/03/16 09:48:21;;;;;;;34.35;21.00;;;10.00;99.90;;;;;;5001938;28;20042;-61
2022/03/16 09:50:47;;;;;;;36.38;22.60;;;10.00;99.90;;;;;;5007658;28;20083;-61
2022/03/16 09:53:14;;;;;;;34.47;22.00;;;10.20;99.90;;;;;;5007184;28;20064;-61
2022/03/16 09:55:40;;;;;;;39.00;23.13;;;10.30;99.90;;;;;;4995954;28;20050;-61
2022/03/16 09:58:06;;;;;;;36.28;22.35;;;10.40;99.90;;;;;;5007914;28;20251;-61
2022/03/16 10:00:31;;;;;;;39.83;23.13;;;10.50;99.90;;;;;;5007221;28;20042;-62
2022/03/16 10:03:05;;;;;;;32.00;20.40;;;10.70;99.90;;;;;;5010184;28;20037;-62
2022/03/16 10:05:31;;;;;;;33.50;20.40;;;10.80;99.90;;;;;;4989953;28;20050;-61
2022/03/16 10:08:02;;;;;;;32.13;18.30;;;10.90;99.90;;;;;;5007725;28;20080;-61
2022/03/16 10:13:21;;;;;;;32.25;18.10;;;11.10;99.90;;;;;;5003555;28;20041;-61
2022/03/16 10:15:48;;;;;;;27.38;17.02;;;11.20;99.90;;;;;;5007413;28;20095;-61
2022/03/16 10:18:20;;;;;;;27.48;15.90;;;11.30;99.90;;;;;;4983900;28;20498;-62
2022/03/16 10:20:47;;;;;;;26.90;16.20;;;11.30;99.90;;;;;;5001217;28;20073;-61
2022/03/16 10:23:24;;;;;;;32.25;17.45;;;11.50;99.90;;;;;;5007055;28;20042;-60
2022/03/16 10:25:52;;;;;;;27.77;15.93;;;11.60;99.90;;;;;;5006248;28;20069;-61
2022/03/16 10:28:19;;;;;;;24.85;15.30;;;11.70;99.90;;;;;;5009617;28;20222;-62
2022/03/16 10:31:05;;;;;;;28.67;14.95;;;11.80;99.90;;;;;;5005000;28;20038;-61
2022/03/16 10:33:44;;;;;;;32.05;14.48;;;11.80;99.90;;;;;;4989160;28;20041;-61
2022/03/16 10:36:12;;;;;;;26.88;15.23;;;11.80;99.90;;;;;;4997331;28;20420;-61
2022/03/16 10:38:58;;;;;;;26.42;15.30;;;11.80;99.90;;;;;;5006519;28;20048;-61
2022/03/16 10:47:15;;;;;;;28.25;16.02;;;12.10;99.90;;;;;;5001773;28;20133;-61
2022/03/16 10:49:41;;;;;;;27.55;15.95;;;12.20;99.90;;;;;;5007230;28;20089;-61
2022/03/16 10:52:17;;;;;;;23.85;14.80;;;12.20;99.90;;;;;;5011026;28;20034;-61
2022/03/16 10:54:44;;;;;;;25.77;15.35;;;12.30;99.90;;;;;;5007501;28;20092;-61
2022/03/16 10:57:13;;;;;;;27.83;15.45;;;12.40;99.90;;;;;;5006393;28;20054;-61
2022/03/16 10:59:48;;;;;;;25.35;15.70;;;12.50;99.90;;;;;;5006448;28;20042;-61
2022/03/16 11:02:16;;;;;;;24.65;14.35;;;12.60;99.90;;;;;;5011046;28;20056;-61
2022/03/16 11:04:44;;;;;;;27.23;15.57;;;12.60;99.90;;;;;;5008738;28;20659;-61
2022/03/16 11:07:10;;;;;;;25.08;15.63;;;12.70;99.90;;;;;;5004660;28;20048;-61
2022/03/16 11:09:38;;;;;;;26.05;15.13;;;12.70;99.90;;;;;;5008265;28;20531;-61
2022/03/16 11:14:50;;;;;;;27.40;15.95;;;12.70;99.90;;;;;;5006832;28;20045;-61
2022/03/16 11:17:16;;;;;;;29.55;16.15;;;12.80;99.90;;;;;;4999792;28;20518;-61
2022/03/16 11:19:45;;;;;;;22.90;15.38;;;12.90;99.90;;;;;;5004003;28;20287;-61
2022/03/16 11:22:16;;;;;;;29.10;15.98;;;13.00;99.90;;;;;;5003145;28;20562;-61
2022/03/16 11:24:47;;;;;;;26.10;14.93;;;13.00;99.90;;;;;;4994447;28;20037;-61
2022/03/16 11:27:32;;;;;;;26.90;15.87;;;13.10;99.90;;;;;;4993583;28;20038;-61
2022/03/16 11:30:30;;;;;;;24.75;15.50;;;13.20;99.90;;;;;;5006610;28;20042;-61
2022/03/16 11:33:04;;;;;;;24.58;13.82;;;13.30;99.90;;;;;;5002070;28;20053;-61
2022/03/16 11:35:44;;;;;;;24.42;14.35;;;13.30;99.90;;;;;;5000684;28;20519;-61
2022/03/16 11:38:13;;;;;;;27.70;16.17;;;13.40;99.90;;;;;;4998929;28;20046;-61
2022/03/16 11:40:42;;;;;;;28.58;16.67;;;13.40;99.90;;;;;;5004128;28;20143;-61
2022/03/16 11:43:08;;;;;;;28.85;16.17;;;13.50;99.90;;;;;;4999896;28;20052;-61
2022/03/16 11:45:45;;;;;;;27.63;16.60;;;13.60;99.90;;;;;;5006355;28;20042;-61
2022/03/16 11:48:31;;;;;;;27.75;15.63;;;13.60;99.90;;;;;;5005564;28;20089;-61
2022/03/16 11:51:08;;;;;;;29.63;17.02;;;13.80;99.90;;;;;;5013092;28;20041;-61
2022/03/16 11:53:57;;;;;;;27.38;16.77;;;13.90;99.90;;;;;;5005665;28;20139;-61
2022/03/16 11:56:29;;;;;;;30.85;15.88;;;13.90;99.90;;;;;;5005916;28;20767;-63
2022/03/16 11:59:05;;;;;;;26.80;16.02;;;13.90;99.90;;;;;;5005620;28;20069;-61
2022/03/16 12:01:35;;;;;;;26.38;15.52;;;14.00;99.90;;;;;;5008719;28;20073;-61
2022/03/16 12:04:12;;;;;;;24.55;14.60;;;14.10;99.90;;;;;;5005226;28;20514;-61
2022/03/16 12:07:05;;;;;;;24.13;13.88;;;14.10;99.90;;;;;;5005656;28;20515;-61
2022/03/16 12:09:30;;;;;;;19.10;12.60;;;14.30;99.90;;;;;;5009194;28;20041;-61
2022/03/16 12:15:12;;;;;;;20.80;12.55;;;14.40;98.80;;;;;;4987276;28;20041;-61
2022/03/16 12:18:01;;;;;;;23.75;13.27;;;14.40;99.90;;;;;;4995616;28;20045;-61
2022/03/16 12:20:45;;;;;;;20.40;12.18;;;14.40;99.90;;;;;;5005713;28;20042;-61
2022/03/16 12:23:16;;;;;;;21.70;12.60;;;14.40;99.90;;;;;;5009401;28;20044;-61
2022/03/16 12:25:47;;;;;;;23.38;14.10;;;14.50;99.90;;;;;;5005554;28;20081;-61
2022/03/16 12:31:15;;;;;;;22.75;13.57;;;14.60;98.60;;;;;;5004591;28;20038;-59
2022/03/16 12:33:42;;;;;;;22.15;13.68;;;14.70;99.90;;;;;;4984644;28;20045;-59
2022/03/16 12:36:11;;;;;;;22.30;14.85;;;14.70;99.90;;;;;;5005280;28;20042;-60
2022/03/16 12:38:41;;;;;;;25.23;14.48;;;14.70;99.70;;;;;;4987774;28;20046;-61
2022/03/16 12:44:01;;;;;;;20.27;12.63;;;14.80;99.90;;;;;;5003972;28;20054;-61
2022/03/16 12:46:32;;;;;;;27.27;14.02;;;14.80;99.90;;;;;;4997492;28;20042;-61
2022/03/16 12:49:01;;;;;;;;;;;14.90;99.90;;;;;;5003081;28;20559;-61
2022/03/16 12:51:39;;;;;;;23.80;13.82;;;14.90;99.80;;;;;;5009002;28;19928;-61
2022/03/16 12:54:06;;;;;;;25.60;15.23;;;15.00;99.90;;;;;;4989320;28;20046;-61
2022/03/16 12:56:43;;;;;;;22.00;14.63;;;15.10;99.90;;;;;;4993982;28;20592;-61
2022/03/16 12:59:10;;;;;;;25.42;14.90;;;15.10;98.50;;;;;;5001775;28;20599;-61